METAR Data
IDs: Format: Raw Decoded Include TAF

Data at: 0226 UTC 16 Jan 2019

METAR for:KHSE (Hatteras/Mitchell Fl, NC, US)
Text:KHSE 160151Z AUTO VRB03KT 10SM CLR 04/M01 A3021 RMK AO2 SLP231 T00441011 TSNO
Temperature: 4.4°C ( 40°F)
Dewpoint: -1.1°C ( 30°F) [RH = 67%]
Pressure (altimeter):30.21 inches Hg (1023.1 mb) [Sea level pressure: 1023.1 mb]
Winds:variable direction winds at 3 MPH (3 knots; 1.5 m/s)
Visibility:10 or more sm (16+ km)
Ceiling:at least 12,000 feet AGL
Clouds:sky clear below 12,000 feet AGL
QC Flag:automated observation with no human augmentation
Text:KHSE 160051Z AUTO 35003KT 10SM CLR 05/M02 A3021 RMK AO2 SLP229 T00501017 TSNO
Temperature: 5.0°C ( 41°F)
Dewpoint: -1.7°C ( 29°F) [RH = 62%]
Pressure (altimeter):30.21 inches Hg (1023.1 mb) [Sea level pressure: 1022.9 mb]
Winds:from the N (350 degrees) at 3 MPH (3 knots; 1.5 m/s)
Visibility:10 or more sm (16+ km)
Ceiling:at least 12,000 feet AGL
Clouds:sky clear below 12,000 feet AGL
QC Flag:automated observation with no human augmentation
Text:KHSE 152351Z AUTO VRB04KT 10SM CLR 04/M02 A3021 RMK AO2 SLP230 T00441017 10083 20044 53008 TSNO
Temperature: 4.4°C ( 40°F)
Dewpoint: -1.7°C ( 29°F) [RH = 64%]
Pressure (altimeter):30.21 inches Hg (1023.1 mb) [Sea level pressure: 1023.0 mb]
Winds:variable direction winds at 5 MPH (4 knots; 2.1 m/s)
Visibility:10 or more sm (16+ km)
Ceiling:at least 12,000 feet AGL
Clouds:sky clear below 12,000 feet AGL
QC Flag:automated observation with no human augmentation
Text:KHSE 152251Z AUTO VRB04KT 10SM CLR 04/M02 A3019 RMK AO2 SLP224 T00441022 TSNO
Temperature: 4.4°C ( 40°F)
Dewpoint: -2.2°C ( 28°F) [RH = 62%]
Pressure (altimeter):30.19 inches Hg (1022.4 mb) [Sea level pressure: 1022.4 mb]
Winds:variable direction winds at 5 MPH (4 knots; 2.1 m/s)
Visibility:10 or more sm (16+ km)
Ceiling:at least 12,000 feet AGL
Clouds:sky clear below 12,000 feet AGL
QC Flag:automated observation with no human augmentation
Text:KHSE 152151Z AUTO 02005KT 10SM CLR 05/M02 A3018 RMK AO2 SLP219 T00501017 TSNO
Temperature: 5.0°C ( 41°F)
Dewpoint: -1.7°C ( 29°F) [RH = 62%]
Pressure (altimeter):30.18 inches Hg (1022.1 mb) [Sea level pressure: 1021.9 mb]
Winds:from the NNE (20 degrees) at 6 MPH (5 knots; 2.6 m/s)
Visibility:10 or more sm (16+ km)
Ceiling:at least 12,000 feet AGL
Clouds:sky clear below 12,000 feet AGL
QC Flag:automated observation with no human augmentation
Text:KHSE 152051Z AUTO VRB04KT 10SM OVC085 07/M02 A3019 RMK AO2 SLP222 T00671017 53001 TSNO
Temperature: 6.7°C ( 44°F)
Dewpoint: -1.7°C ( 29°F) [RH = 55%]
Pressure (altimeter):30.19 inches Hg (1022.4 mb) [Sea level pressure: 1022.2 mb]
Winds:variable direction winds at 5 MPH (4 knots; 2.1 m/s)
Visibility:10 or more sm (16+ km)
Ceiling:8500 feet AGL
Clouds: overcast cloud deck at 8500 feet AGL
QC Flag:automated observation with no human augmentation
Text:KHSE 151951Z AUTO VRB05KT 10SM OVC080 07/M02 A3018 RMK AO2 SLP220 T00671017 TSNO
Temperature: 6.7°C ( 44°F)
Dewpoint: -1.7°C ( 29°F) [RH = 55%]
Pressure (altimeter):30.18 inches Hg (1022.1 mb) [Sea level pressure: 1022.0 mb]
Winds:variable direction winds at 6 MPH (5 knots; 2.6 m/s)
Visibility:10 or more sm (16+ km)
Ceiling:8000 feet AGL
Clouds: overcast cloud deck at 8000 feet AGL
QC Flag:automated observation with no human augmentation
Text:KHSE 151851Z AUTO VRB05KT 10SM BKN080 08/M04 A3018 RMK AO2 SLP218 T00781039 TSNO
Temperature: 7.8°C ( 46°F)
Dewpoint: -3.9°C ( 25°F) [RH = 43%]
Pressure (altimeter):30.18 inches Hg (1022.1 mb) [Sea level pressure: 1021.8 mb]
Winds:variable direction winds at 6 MPH (5 knots; 2.6 m/s)
Visibility:10 or more sm (16+ km)
Ceiling:8000 feet AGL
Clouds: broken clouds at 8000 feet AGL
QC Flag:automated observation with no human augmentation
Text:KHSE 151751Z AUTO VRB05KT 10SM SCT080 08/M02 A3018 RMK AO2 SLP221 T00781022 10078 20039 58016 TSNO
Temperature: 7.8°C ( 46°F)
Dewpoint: -2.2°C ( 28°F) [RH = 49%]
Pressure (altimeter):30.18 inches Hg (1022.1 mb) [Sea level pressure: 1022.1 mb]
Winds:variable direction winds at 6 MPH (5 knots; 2.6 m/s)
Visibility:10 or more sm (16+ km)
Ceiling:at least 12,000 feet AGL
Clouds: scattered clouds at 8000 feet AGL
QC Flag:automated observation with no human augmentation
Text:KHSE 151651Z AUTO VRB05KT 10SM OVC080 06/M03 A3021 RMK AO2 SLP231 T00611028 TSNO
Temperature: 6.1°C ( 43°F)
Dewpoint: -2.8°C ( 27°F) [RH = 53%]
Pressure (altimeter):30.21 inches Hg (1023.1 mb) [Sea level pressure: 1023.1 mb]
Winds:variable direction winds at 6 MPH (5 knots; 2.6 m/s)
Visibility:10 or more sm (16+ km)
Ceiling:8000 feet AGL
Clouds: overcast cloud deck at 8000 feet AGL
QC Flag:automated observation with no human augmentation
Text:KHSE 151551Z AUTO 33007KT 10SM OVC080 06/M02 A3023 RMK AO2 SLP236 T00611022 TSNO
Temperature: 6.1°C ( 43°F)
Dewpoint: -2.2°C ( 28°F) [RH = 55%]
Pressure (altimeter):30.23 inches Hg (1023.8 mb) [Sea level pressure: 1023.6 mb]
Winds:from the NNW (330 degrees) at 8 MPH (7 knots; 3.6 m/s)
Visibility:10 or more sm (16+ km)
Ceiling:8000 feet AGL
Clouds: overcast cloud deck at 8000 feet AGL
QC Flag:automated observation with no human augmentation
Text:KHSE 151451Z AUTO VRB05KT 10SM OVC080 06/M01 A3023 RMK AO2 SLP236 T00561011 53016 TSNO
Temperature: 5.6°C ( 42°F)
Dewpoint: -1.1°C ( 30°F) [RH = 62%]
Pressure (altimeter):30.23 inches Hg (1023.8 mb) [Sea level pressure: 1023.6 mb]
Winds:variable direction winds at 6 MPH (5 knots; 2.6 m/s)
Visibility:10 or more sm (16+ km)
Ceiling:8000 feet AGL
Clouds: overcast cloud deck at 8000 feet AGL
QC Flag:automated observation with no human augmentation
Text:KHSE 151351Z AUTO VRB06KT 10SM FEW085 06/M01 A3020 RMK AO2 SLP226 T00561006 TSNO
Temperature: 5.6°C ( 42°F)
Dewpoint: -0.6°C ( 31°F) [RH = 64%]
Pressure (altimeter):30.20 inches Hg (1022.8 mb) [Sea level pressure: 1022.6 mb]
Winds:variable direction winds at 7 MPH (6 knots; 3.1 m/s)
Visibility:10 or more sm (16+ km)
Ceiling:at least 12,000 feet AGL
Clouds: few clouds at 8500 feet AGL
QC Flag:automated observation with no human augmentation
Text:KHSE 151251Z AUTO VRB03KT 10SM BKN085 04/M01 A3018 RMK AO2 SLP221 T00391011 TSNO
Temperature: 3.9°C ( 39°F)
Dewpoint: -1.1°C ( 30°F) [RH = 70%]
Pressure (altimeter):30.18 inches Hg (1022.1 mb) [Sea level pressure: 1022.1 mb]
Winds:variable direction winds at 3 MPH (3 knots; 1.5 m/s)
Visibility:10 or more sm (16+ km)
Ceiling:8500 feet AGL
Clouds: broken clouds at 8500 feet AGL
QC Flag:automated observation with no human augmentation
Text:KHSE 151151Z AUTO VRB03KT 10SM OVC090 04/M01 A3018 RMK AO2 SLP220 T00391011 10039 20033 53007 TSNO
Temperature: 3.9°C ( 39°F)
Dewpoint: -1.1°C ( 30°F) [RH = 70%]
Pressure (altimeter):30.18 inches Hg (1022.1 mb) [Sea level pressure: 1022.0 mb]
Winds:variable direction winds at 3 MPH (3 knots; 1.5 m/s)
Visibility:10 or more sm (16+ km)
Ceiling:9000 feet AGL
Clouds: overcast cloud deck at 9000 feet AGL
QC Flag:automated observation with no human augmentation
Text:KHSE 151051Z AUTO VRB04KT 10SM OVC085 04/00 A3017 RMK AO2 SLP216 T00390000 TSNO $
Temperature: 3.9°C ( 39°F)
Dewpoint: 0.0°C ( 32°F) [RH = 76%]
Pressure (altimeter):30.17 inches Hg (1021.8 mb) [Sea level pressure: 1021.6 mb]
Winds:variable direction winds at 5 MPH (4 knots; 2.1 m/s)
Visibility:10 or more sm (16+ km)
Ceiling:8500 feet AGL
Clouds: overcast cloud deck at 8500 feet AGL
QC Flag:automated observation with no human augmentation; SOME DATA ABOVE MAY BE INACCURATE!!!"$" is an indication the sensor requires maintenance.
Text:KHSE 150951Z AUTO VRB04KT 10SM OVC085 04/00 A3016 RMK AO2 SLP214 T00390000 TSNO $
Temperature: 3.9°C ( 39°F)
Dewpoint: 0.0°C ( 32°F) [RH = 76%]
Pressure (altimeter):30.16 inches Hg (1021.4 mb) [Sea level pressure: 1021.4 mb]
Winds:variable direction winds at 5 MPH (4 knots; 2.1 m/s)
Visibility:10 or more sm (16+ km)
Ceiling:8500 feet AGL
Clouds: overcast cloud deck at 8500 feet AGL
QC Flag:automated observation with no human augmentation; SOME DATA ABOVE MAY BE INACCURATE!!!"$" is an indication the sensor requires maintenance.
Text:KHSE 150851Z AUTO VRB04KT 10SM FEW019 OVC085 04/M01 A3016 RMK AO2 SLP214 T00391006 58003 TSNO $
Temperature: 3.9°C ( 39°F)
Dewpoint: -0.6°C ( 31°F) [RH = 72%]
Pressure (altimeter):30.16 inches Hg (1021.4 mb) [Sea level pressure: 1021.4 mb]
Winds:variable direction winds at 5 MPH (4 knots; 2.1 m/s)
Visibility:10 or more sm (16+ km)
Ceiling:8500 feet AGL
Clouds: few clouds at 1900 feet AGL, overcast cloud deck at 8500 feet AGL
QC Flag:automated observation with no human augmentation; SOME DATA ABOVE MAY BE INACCURATE!!!"$" is an indication the sensor requires maintenance.
Text:KHSE 150810Z AUTO VRB04KT 10SM SCT020 03/M01 A3017 RMK AO2 T00331011 TSNO $
Temperature: 3.3°C ( 38°F)
Dewpoint: -1.1°C ( 30°F) [RH = 73%]
Pressure (altimeter):30.17 inches Hg (1021.8 mb)
Winds:variable direction winds at 5 MPH (4 knots; 2.1 m/s)
Visibility:10 or more sm (16+ km)
Ceiling:at least 12,000 feet AGL
Clouds: scattered clouds at 2000 feet AGL
QC Flag:automated observation with no human augmentation; SOME DATA ABOVE MAY BE INACCURATE!!!"$" is an indication the sensor requires maintenance.
Text:KHSE 150751Z AUTO VRB04KT 10SM BKN020 03/M01 A3017 RMK AO2 SLP218 T00331006 TSNO $
Temperature: 3.3°C ( 38°F)
Dewpoint: -0.6°C ( 31°F) [RH = 76%]
Pressure (altimeter):30.17 inches Hg (1021.8 mb) [Sea level pressure: 1021.8 mb]
Winds:variable direction winds at 5 MPH (4 knots; 2.1 m/s)
Visibility:10 or more sm (16+ km)
Ceiling:2000 feet AGL
Clouds: broken clouds at 2000 feet AGL
QC Flag:automated observation with no human augmentation; SOME DATA ABOVE MAY BE INACCURATE!!!"$" is an indication the sensor requires maintenance.
Text:KHSE 150651Z AUTO VRB06KT 10SM OVC021 04/M01 A3018 RMK AO2 SLP219 T00391006 TSNO $
Temperature: 3.9°C ( 39°F)
Dewpoint: -0.6°C ( 31°F) [RH = 72%]
Pressure (altimeter):30.18 inches Hg (1022.1 mb) [Sea level pressure: 1021.9 mb]
Winds:variable direction winds at 7 MPH (6 knots; 3.1 m/s)
Visibility:10 or more sm (16+ km)
Ceiling:2100 feet AGL
Clouds: overcast cloud deck at 2100 feet AGL
QC Flag:automated observation with no human augmentation; SOME DATA ABOVE MAY BE INACCURATE!!!"$" is an indication the sensor requires maintenance.
Text:KHSE 150551Z AUTO VRB06KT 10SM OVC021 04/M01 A3017 RMK AO2 SLP217 T00391006 10044 20039 58002 TSNO
Temperature: 3.9°C ( 39°F)
Dewpoint: -0.6°C ( 31°F) [RH = 72%]
Pressure (altimeter):30.17 inches Hg (1021.8 mb) [Sea level pressure: 1021.7 mb]
Winds:variable direction winds at 7 MPH (6 knots; 3.1 m/s)
Visibility:10 or more sm (16+ km)
Ceiling:2100 feet AGL
Clouds: overcast cloud deck at 2100 feet AGL
QC Flag:automated observation with no human augmentation
Text:KHSE 150451Z AUTO 10SM OVC022 04/M01 A3018 RMK AO2 SLP218 T00391006 400720039 TSNO
Temperature: 3.9°C ( 39°F)
Dewpoint: -0.6°C ( 31°F) [RH = 72%]
Pressure (altimeter):30.18 inches Hg (1022.1 mb) [Sea level pressure: 1021.8 mb]
Visibility:10 or more sm (16+ km)
Ceiling:2200 feet AGL
Clouds: overcast cloud deck at 2200 feet AGL
QC Flag:automated observation with no human augmentation
Text:KHSE 150351Z AUTO VRB05KT 10SM OVC022 04/M01 A3018 RMK AO2 SLP219 T00391006 TSNO
Temperature: 3.9°C ( 39°F)
Dewpoint: -0.6°C ( 31°F) [RH = 72%]
Pressure (altimeter):30.18 inches Hg (1022.1 mb) [Sea level pressure: 1021.9 mb]
Winds:variable direction winds at 6 MPH (5 knots; 2.6 m/s)
Visibility:10 or more sm (16+ km)
Ceiling:2200 feet AGL
Clouds: overcast cloud deck at 2200 feet AGL
QC Flag:automated observation with no human augmentation
Text:KHSE 150251Z AUTO VRB05KT 10SM OVC022 04/M01 A3018 RMK AO2 SLP218 T00391006 57001 TSNO
Temperature: 3.9°C ( 39°F)
Dewpoint: -0.6°C ( 31°F) [RH = 72%]
Pressure (altimeter):30.18 inches Hg (1022.1 mb) [Sea level pressure: 1021.8 mb]
Winds:variable direction winds at 6 MPH (5 knots; 2.6 m/s)
Visibility:10 or more sm (16+ km)
Ceiling:2200 feet AGL
Clouds: overcast cloud deck at 2200 feet AGL
QC Flag:automated observation with no human augmentation
Text:KHSE 150151Z AUTO VRB05KT 10SM OVC023 04/M01 A3018 RMK AO2 SLP219 T00391006 TSNO
Temperature: 3.9°C ( 39°F)
Dewpoint: -0.6°C ( 31°F) [RH = 72%]
Pressure (altimeter):30.18 inches Hg (1022.1 mb) [Sea level pressure: 1021.9 mb]
Winds:variable direction winds at 6 MPH (5 knots; 2.6 m/s)
Visibility:10 or more sm (16+ km)
Ceiling:2300 feet AGL
Clouds: overcast cloud deck at 2300 feet AGL
QC Flag:automated observation with no human augmentation
Text:KHSE 150051Z AUTO VRB06KT 10SM OVC023 04/M01 A3018 RMK AO2 SLP219 T00391006 TSNO
Temperature: 3.9°C ( 39°F)
Dewpoint: -0.6°C ( 31°F) [RH = 72%]
Pressure (altimeter):30.18 inches Hg (1022.1 mb) [Sea level pressure: 1021.9 mb]
Winds:variable direction winds at 7 MPH (6 knots; 3.1 m/s)
Visibility:10 or more sm (16+ km)
Ceiling:2300 feet AGL
Clouds: overcast cloud deck at 2300 feet AGL
QC Flag:automated observation with no human augmentation
Text:KHSE 142351Z AUTO VRB06KT 10SM OVC018 04/01 A3018 RMK AO2 SLP220 T00440006 10050 20044 53011 TSNO
Temperature: 4.4°C ( 40°F)
Dewpoint: 0.6°C ( 33°F) [RH = 76%]
Pressure (altimeter):30.18 inches Hg (1022.1 mb) [Sea level pressure: 1022.0 mb]
Winds:variable direction winds at 7 MPH (6 knots; 3.1 m/s)
Visibility:10 or more sm (16+ km)
Ceiling:1800 feet AGL
Clouds: overcast cloud deck at 1800 feet AGL
QC Flag:automated observation with no human augmentation
Text:KHSE 142251Z AUTO 01009G16KT 10SM OVC015 04/01 A3017 RMK AO2 SLP217 T00440011 TSNO
Temperature: 4.4°C ( 40°F)
Dewpoint: 1.1°C ( 34°F) [RH = 79%]
Pressure (altimeter):30.17 inches Hg (1021.8 mb) [Sea level pressure: 1021.7 mb]
Winds:from the N (10 degrees) at 10 MPH (9 knots; 4.6 m/s) gusting to 18 MPH (16 knots; 8.2 m/s)
Visibility:10 or more sm (16+ km)
Ceiling:1500 feet AGL
Clouds: overcast cloud deck at 1500 feet AGL
QC Flag:automated observation with no human augmentation
Text:KHSE 142151Z AUTO 35008G16KT 320V030 10SM OVC017 04/01 A3015 RMK AO2 SLP210 T00440011 TSNO
Temperature: 4.4°C ( 40°F)
Dewpoint: 1.1°C ( 34°F) [RH = 79%]
Pressure (altimeter):30.15 inches Hg (1021.1 mb) [Sea level pressure: 1021.0 mb]
Winds:from the N (350 degrees) at 9 MPH (8 knots; 4.1 m/s) gusting to 18 MPH (16 knots; 8.2 m/s)
Visibility:10 or more sm (16+ km)
Ceiling:1700 feet AGL
Clouds: overcast cloud deck at 1700 feet AGL
QC Flag:automated observation with no human augmentation
Text:KHSE 142126Z AUTO 35008KT 310V020 10SM OVC015 04/01 A3015 RMK AO2 T00440011 TSNO
Temperature: 4.4°C ( 40°F)
Dewpoint: 1.1°C ( 34°F) [RH = 79%]
Pressure (altimeter):30.15 inches Hg (1021.1 mb)
Winds:from the N (350 degrees) at 9 MPH (8 knots; 4.1 m/s)
Visibility:10 or more sm (16+ km)
Ceiling:1500 feet AGL
Clouds: overcast cloud deck at 1500 feet AGL
QC Flag:automated observation with no human augmentation
Text:KHSE 142051Z AUTO 01009G18KT 330V040 10SM OVC014 04/01 A3015 RMK AO2 SLP209 T00440011 58001 TSNO
Temperature: 4.4°C ( 40°F)
Dewpoint: 1.1°C ( 34°F) [RH = 79%]
Pressure (altimeter):30.15 inches Hg (1021.1 mb) [Sea level pressure: 1020.9 mb]
Winds:from the N (10 degrees) at 10 MPH (9 knots; 4.6 m/s) gusting to 21 MPH (18 knots; 9.3 m/s)
Visibility:10 or more sm (16+ km)
Ceiling:1400 feet AGL
Clouds: overcast cloud deck at 1400 feet AGL
QC Flag:automated observation with no human augmentation
Text:KHSE 141951Z AUTO VRB06G16KT 10SM OVC012 04/02 A3016 RMK AO2 SLP211 T00440017 TSNO
Temperature: 4.4°C ( 40°F)
Dewpoint: 1.7°C ( 35°F) [RH = 83%]
Pressure (altimeter):30.16 inches Hg (1021.4 mb) [Sea level pressure: 1021.1 mb]
Winds:variable direction winds at 7 MPH (6 knots; 3.1 m/s) gusting to 18 MPH (16 knots; 8.2 m/s)
Visibility:10 or more sm (16+ km)
Ceiling:1200 feet AGL
Clouds: overcast cloud deck at 1200 feet AGL
QC Flag:automated observation with no human augmentation
Text:KHSE 141851Z AUTO VRB06KT 10SM OVC011 05/02 A3015 RMK AO2 SLP210 T00500017 TSNO
Temperature: 5.0°C ( 41°F)
Dewpoint: 1.7°C ( 35°F) [RH = 79%]
Pressure (altimeter):30.15 inches Hg (1021.1 mb) [Sea level pressure: 1021.0 mb]
Winds:variable direction winds at 7 MPH (6 knots; 3.1 m/s)
Visibility:10 or more sm (16+ km)
Ceiling:1100 feet AGL
Clouds: overcast cloud deck at 1100 feet AGL
QC Flag:automated observation with no human augmentation
Text:KHSE 141751Z AUTO VRB04KT 10SM OVC011 05/02 A3015 RMK AO2 SLP210 T00500022 10050 20044 58010 TSNO
Temperature: 5.0°C ( 41°F)
Dewpoint: 2.2°C ( 36°F) [RH = 82%]
Pressure (altimeter):30.15 inches Hg (1021.1 mb) [Sea level pressure: 1021.0 mb]
Winds:variable direction winds at 5 MPH (4 knots; 2.1 m/s)
Visibility:10 or more sm (16+ km)
Ceiling:1100 feet AGL
Clouds: overcast cloud deck at 1100 feet AGL
QC Flag:automated observation with no human augmentation
Text:KHSE 141651Z AUTO 34008KT 310V030 10SM OVC010 05/02 A3017 RMK AO2 SLP215 T00500022 TSNO
Temperature: 5.0°C ( 41°F)
Dewpoint: 2.2°C ( 36°F) [RH = 82%]
Pressure (altimeter):30.17 inches Hg (1021.8 mb) [Sea level pressure: 1021.5 mb]
Winds:from the NNW (340 degrees) at 9 MPH (8 knots; 4.1 m/s)
Visibility:10 or more sm (16+ km)
Ceiling:1000 feet AGL
Clouds: overcast cloud deck at 1000 feet AGL
QC Flag:automated observation with no human augmentation
Text:KHSE 141551Z AUTO VRB06KT 10SM OVC008 05/03 A3019 RMK AO2 SLP221 T00500028 TSNO
Temperature: 5.0°C ( 41°F)
Dewpoint: 2.8°C ( 37°F) [RH = 86%]
Pressure (altimeter):30.19 inches Hg (1022.4 mb) [Sea level pressure: 1022.1 mb]
Winds:variable direction winds at 7 MPH (6 knots; 3.1 m/s)
Visibility:10 or more sm (16+ km)
Ceiling:800 feet AGL
Clouds: overcast cloud deck at 800 feet AGL
QC Flag:automated observation with no human augmentation
Text:KHSE 141520Z AUTO VRB05G16KT 10SM OVC009 05/03 A3019 RMK AO2 T00500028 TSNO
Temperature: 5.0°C ( 41°F)
Dewpoint: 2.8°C ( 37°F) [RH = 86%]
Pressure (altimeter):30.19 inches Hg (1022.4 mb)
Winds:variable direction winds at 6 MPH (5 knots; 2.6 m/s) gusting to 18 MPH (16 knots; 8.2 m/s)
Visibility:10 or more sm (16+ km)
Ceiling:900 feet AGL
Clouds: overcast cloud deck at 900 feet AGL
QC Flag:automated observation with no human augmentation
Text:KHSE 141451Z AUTO 35008KT 310V020 10SM OVC010 05/02 A3018 RMK AO2 SLP220 T00500022 51014 TSNO
Temperature: 5.0°C ( 41°F)
Dewpoint: 2.2°C ( 36°F) [RH = 82%]
Pressure (altimeter):30.18 inches Hg (1022.1 mb) [Sea level pressure: 1022.0 mb]
Winds:from the N (350 degrees) at 9 MPH (8 knots; 4.1 m/s)
Visibility:10 or more sm (16+ km)
Ceiling:1000 feet AGL
Clouds: overcast cloud deck at 1000 feet AGL
QC Flag:automated observation with no human augmentation
Text:KHSE 141449Z AUTO 36007G15KT 320V030 10SM OVC010 05/03 A3018 RMK AO2 TSNO
Temperature: 5.0°C ( 41°F)
Dewpoint: 3.0°C ( 37°F) [RH = 87%]
Pressure (altimeter):30.18 inches Hg (1022.1 mb)
Winds:from the N (360 degrees) at 8 MPH (7 knots; 3.6 m/s) gusting to 17 MPH (15 knots; 7.7 m/s)
Visibility:10 or more sm (16+ km)
Ceiling:1000 feet AGL
Clouds: overcast cloud deck at 1000 feet AGL
QC Flag:automated observation with no human augmentation